Hosford, FL (32334)

11:04 AM EST on December 25, 2014 (GMT -0500)
Lake Talquin | Change Station
CLOSE
Current Station
Personal Weather Station
Location: Tallahassee, FL
Elevation: 75 ft
Nearby Weather Stations
Active Advisory: Flood Warning

Elev 75 ft 30.42 °N, 84.56 °W | Updated 35 seconds ago

Clear
Clear
50.3 °F
Feels Like 50.3 °F
N
5.0
Wind Variable Wind from NNE

Today
High -- | Low -- °F
--% Chance of Precip.
Yesterday
High -- | Low -- °F
Precip. -- in
7:33 AM 5:45 PM
Waxing Crescent, 17% visible
Pressure 30.26 in
Visibility 10.0 miles
Clouds Few 15000 ft
Dew Point 42 °F
Humidity 73%
Rainfall 0.00 in
Snow Depth Not available.
UV 3 out of 12
Pollen .50 out of 12
Air Quality Not available.
Flu Activity Not available.
METAR KTLH 251553Z 01008KT 10SM FEW150 12/02 A3026 RMK AO2 SLP247 T01220022 $

More Conditions Fewer Conditions

Pressure 30.26 in
Visibility 10.0 miles
Clouds Few 15000 ft
Dew Point 42 °F
Humidity 73%
Rainfall 0.00 in
Snow Depth Not available.
UV 3 out of 12
Pollen .50 out of 12
Air Quality Not available.
Flu Activity Not available.
METAR KTLH 251553Z 01008KT 10SM FEW150 12/02 A3026 RMK AO2 SLP247 T01220022 $

More Conditions Fewer Conditions

10-Day Weather Forecast

Almanac

Astronomy

Dec. 25, 2014 Rise Set
Actual Time
Civil Twilight
Nautical Twilight
Astronomical Twilight
Moon
Length of Visible Light
Length of Day
Tomorrow will be .
, % of the Moon is Illuminated

Today's Extremes

State Highs State Lows

Community

WunderPhotos

Upload Photos

1,780,317 photos uploaded!

WunderBlogs® & News

Nearby

Air Quality

  Air Quality AQ Index Pollutant
Not available.

Snow Depth

Station Depth Elevation

Earthquake Activity

City Distance Mag. Time & Date
Minimum magnitude displayed is 2.5.

Coastal Water Temperatures

Place Temperature

Nearby Weather Stations